createdAt,value
2022-12-14T00:01:41.900Z,12.02
2022-12-14T00:04:15.573Z,12.13
2022-12-14T00:06:42.807Z,9.73
2022-12-14T00:09:10.211Z,10.52
2022-12-14T00:11:37.478Z,12.35
2022-12-14T00:14:05.471Z,9.80
2022-12-14T00:16:34.584Z,13.18
2022-12-14T00:19:02.394Z,9.10
2022-12-14T00:21:29.979Z,12.48
2022-12-14T00:23:59.621Z,12.73
2022-12-14T00:26:29.227Z,15.65
2022-12-14T00:28:56.857Z,15.82
2022-12-14T00:31:25.272Z,13.75
2022-12-14T00:33:52.804Z,10.77
2022-12-14T00:36:20.448Z,14.77
2022-12-14T00:38:47.785Z,11.10
2022-12-14T00:41:15.031Z,13.35
2022-12-14T00:43:42.346Z,17.88
2022-12-14T00:46:09.677Z,10.45
2022-12-14T00:48:36.996Z,20.75
2022-12-14T00:51:04.539Z,18.02
2022-12-14T00:53:31.822Z,13.63
2022-12-14T00:56:05.752Z,11.38
2022-12-14T00:58:33.005Z,13.65
2022-12-14T01:01:01.991Z,7.97
2022-12-14T01:03:29.660Z,12.27
2022-12-14T01:05:57.535Z,9.05
2022-12-14T01:08:25.280Z,13.48
2022-12-14T01:10:53.286Z,10.90
2022-12-14T01:13:20.518Z,13.57
2022-12-14T01:15:47.846Z,12.85
2022-12-14T01:18:15.189Z,12.45
2022-12-14T01:20:42.448Z,17.15
2022-12-14T01:23:09.661Z,16.27
2022-12-14T01:25:36.940Z,12.35
2022-12-14T01:28:04.628Z,13.25
2022-12-14T01:30:31.924Z,10.20
2022-12-14T01:32:59.169Z,11.43
2022-12-14T01:35:26.500Z,14.10
2022-12-14T01:37:53.734Z,20.88
2022-12-14T01:40:20.983Z,21.00
2022-12-14T01:42:48.183Z,18.55
2022-12-14T01:45:22.912Z,11.95
2022-12-14T01:47:58.742Z,12.40
2022-12-14T01:50:37.888Z,11.23
2022-12-14T01:53:16.150Z,9.15
2022-12-14T01:55:48.841Z,7.97
2022-12-14T01:58:22.235Z,9.20
2022-12-14T02:00:54.220Z,12.93
2022-12-14T02:03:28.680Z,12.98
2022-12-14T02:06:01.236Z,10.35
2022-12-14T02:08:28.979Z,15.23
2022-12-14T02:10:56.618Z,12.60
2022-12-14T02:13:28.318Z,10.80
2022-12-14T02:15:56.029Z,10.32
2022-12-14T02:18:25.619Z,14.57
2022-12-14T02:21:07.242Z,14.77
2022-12-14T02:23:52.567Z,10.98
2022-12-14T02:26:52.832Z,11.55
2022-12-14T02:29:31.505Z,10.63
2022-12-14T02:32:17.763Z,13.90
2022-12-14T02:34:50.317Z,10.15
2022-12-14T02:37:33.248Z,13.73
2022-12-14T02:40:32.462Z,8.38
2022-12-14T02:43:18.822Z,15.18
2022-12-14T02:45:48.849Z,14.88
2022-12-14T02:48:24.626Z,10.02
2022-12-14T02:51:00.726Z,10.13
2022-12-14T02:53:38.952Z,12.13
2022-12-14T02:56:14.041Z,12.43
2022-12-14T02:58:48.023Z,14.07
2022-12-14T03:01:18.862Z,16.17
2022-12-14T03:03:46.504Z,14.82
2022-12-14T03:06:26.259Z,11.45
2022-12-14T03:09:12.097Z,10.70
2022-12-14T03:11:52.890Z,13.45
2022-12-14T03:14:35.080Z,9.98
2022-12-14T03:17:19.013Z,10.60
2022-12-14T03:20:11.786Z,11.27
2022-12-14T03:23:09.218Z,12.10
2022-12-14T03:25:48.629Z,10.18
2022-12-14T03:28:39.697Z,12.80
2022-12-14T03:31:13.234Z,11.40
2022-12-14T03:33:42.966Z,11.77
2022-12-14T03:36:41.873Z,12.02
2022-12-14T03:39:13.152Z,13.32
2022-12-14T03:41:55.072Z,9.82
2022-12-14T03:44:49.311Z,10.32
2022-12-14T03:47:53.129Z,12.45
2022-12-14T03:50:43.827Z,13.10
2022-12-14T03:53:49.859Z,11.88
2022-12-14T03:56:53.251Z,12.75
2022-12-14T03:59:46.548Z,15.10
2022-12-14T04:02:26.012Z,13.32
2022-12-14T04:05:02.164Z,15.90
2022-12-14T04:07:29.394Z,16.02
2022-12-14T04:10:33.489Z,14.15
2022-12-14T04:13:24.786Z,18.45
2022-12-14T04:16:11.362Z,18.63
2022-12-14T04:19:00.234Z,15.43
2022-12-14T04:21:56.739Z,14.52
2022-12-14T04:25:04.481Z,14.98
2022-12-14T04:27:58.299Z,14.40
2022-12-14T04:30:25.538Z,15.52
2022-12-14T04:32:54.640Z,15.35
2022-12-14T04:35:37.979Z,12.75
2022-12-14T04:38:13.754Z,15.50
2022-12-14T04:40:49.860Z,18.00
2022-12-14T04:43:21.310Z,14.88
2022-12-14T04:46:02.307Z,18.20
2022-12-14T04:48:36.076Z,12.85
2022-12-14T04:51:33.944Z,15.80
2022-12-14T04:54:16.419Z,16.77
2022-12-14T04:56:51.667Z,14.85
2022-12-14T04:59:19.111Z,15.85
2022-12-14T05:02:05.959Z,13.07
2022-12-14T05:04:55.068Z,17.35
2022-12-14T05:07:22.331Z,15.48
2022-12-14T05:09:49.578Z,12.60
2022-12-14T05:12:20.285Z,13.77
2022-12-14T05:15:10.602Z,13.07
2022-12-14T05:17:38.864Z,14.15
2022-12-14T05:20:12.859Z,15.02
2022-12-14T05:22:40.443Z,20.55
2022-12-14T05:25:07.539Z,25.95
2022-12-14T05:27:34.823Z,18.92
2022-12-14T05:30:02.096Z,19.98
2022-12-14T05:32:29.589Z,22.13
2022-12-14T05:34:56.895Z,20.67
2022-12-14T05:37:24.162Z,20.02
2022-12-14T05:39:51.439Z,25.20
2022-12-14T05:42:18.767Z,24.27
2022-12-14T05:44:45.993Z,19.42
2022-12-14T05:47:14.220Z,19.83
2022-12-14T05:49:41.555Z,20.40
2022-12-14T05:52:08.858Z,21.52
2022-12-14T05:54:36.104Z,21.50
2022-12-14T05:57:03.436Z,21.52
2022-12-14T05:59:31.010Z,21.50
2022-12-14T06:01:58.368Z,16.88
2022-12-14T06:04:25.764Z,15.70
2022-12-14T06:06:53.102Z,17.05
2022-12-14T06:09:20.626Z,16.10
2022-12-14T06:11:49.412Z,16.15
2022-12-14T06:14:17.056Z,17.10
2022-12-14T06:16:45.916Z,15.77
2022-12-14T06:19:14.255Z,21.00
2022-12-14T06:21:42.636Z,20.90
2022-12-14T06:24:12.188Z,21.80
2022-12-14T06:26:43.152Z,20.00
2022-12-14T06:29:20.737Z,17.25
2022-12-14T06:31:48.986Z,19.80
2022-12-14T06:34:17.294Z,18.27
2022-12-14T06:36:46.856Z,17.00
2022-12-14T06:39:16.706Z,18.00
2022-12-14T06:41:44.194Z,20.83
2022-12-14T06:44:13.681Z,19.58
2022-12-14T06:46:41.264Z,16.77
2022-12-14T06:49:08.609Z,22.13
2022-12-14T06:51:42.002Z,17.80
2022-12-14T06:54:13.699Z,18.35
2022-12-14T06:56:41.391Z,15.88
2022-12-14T06:59:09.096Z,23.15
2022-12-14T07:01:36.896Z,16.42
2022-12-14T07:04:05.022Z,17.33
2022-12-14T07:06:35.531Z,21.15
2022-12-14T07:09:04.698Z,19.92
2022-12-14T07:11:32.093Z,19.75
2022-12-14T07:14:01.311Z,16.88
2022-12-14T07:16:31.784Z,18.30
2022-12-14T07:18:59.491Z,18.83
2022-12-14T07:21:26.984Z,24.23
2022-12-14T07:23:54.479Z,23.58
2022-12-14T07:26:26.730Z,26.50
2022-12-14T07:28:54.620Z,24.88
2022-12-14T07:31:24.132Z,24.00
2022-12-14T07:33:59.360Z,21.10
2022-12-14T07:36:28.971Z,23.25
2022-12-14T07:38:57.056Z,19.83
2022-12-14T07:41:30.772Z,19.38
2022-12-14T07:44:00.588Z,13.10
2022-12-14T07:46:29.619Z,20.98
2022-12-14T07:48:57.988Z,25.58
2022-12-14T07:51:28.750Z,22.50
2022-12-14T07:53:56.447Z,18.20
2022-12-14T07:56:29.589Z,20.88
2022-12-14T07:58:58.141Z,19.48
2022-12-14T08:01:33.948Z,21.30
2022-12-14T08:04:06.664Z,20.83
2022-12-14T08:06:34.463Z,24.02
2022-12-14T08:09:02.143Z,20.75
2022-12-14T08:11:29.624Z,20.48
2022-12-14T08:14:06.216Z,22.60
2022-12-14T08:16:33.828Z,19.27
2022-12-14T08:19:01.405Z,21.42
2022-12-14T08:21:29.153Z,21.25
2022-12-14T08:23:57.123Z,18.13
2022-12-14T08:26:28.778Z,20.80
2022-12-14T08:29:00.666Z,16.13
2022-12-14T08:31:28.404Z,19.83
2022-12-14T08:33:56.124Z,17.08
2022-12-14T08:36:26.876Z,20.40
2022-12-14T08:39:06.424Z,13.50
2022-12-14T08:41:34.200Z,19.17
2022-12-14T08:44:03.027Z,17.95
2022-12-14T08:46:33.088Z,15.98
2022-12-14T08:49:00.428Z,17.27
2022-12-14T08:51:28.762Z,16.55
2022-12-14T08:53:56.364Z,17.25
2022-12-14T08:56:25.699Z,18.30
2022-12-14T08:58:53.392Z,18.15
2022-12-14T09:01:28.198Z,17.08
2022-12-14T09:04:03.853Z,18.27
2022-12-14T09:06:31.256Z,19.42
2022-12-14T09:08:58.709Z,18.08
2022-12-14T09:11:25.977Z,16.33
2022-12-14T09:13:56.924Z,21.02
2022-12-14T09:16:26.438Z,18.48
2022-12-14T09:18:54.190Z,15.07
2022-12-14T09:21:21.780Z,18.92
2022-12-14T09:23:51.400Z,20.92
2022-12-14T09:26:23.872Z,17.92
2022-12-14T09:28:53.831Z,17.08
2022-12-14T09:31:22.987Z,19.80
2022-12-14T09:33:50.544Z,19.17
2022-12-14T09:36:20.377Z,19.98
2022-12-14T09:38:51.619Z,17.55
2022-12-14T09:41:34.648Z,22.40
2022-12-14T09:44:18.174Z,17.75
2022-12-14T09:47:03.918Z,19.77
2022-12-14T09:50:04.148Z,20.10
2022-12-14T09:52:52.764Z,17.95
2022-12-14T09:55:37.065Z,20.85
2022-12-14T09:58:05.205Z,21.80
2022-12-14T10:00:37.711Z,29.30
2022-12-14T10:03:07.150Z,21.10
2022-12-14T10:06:06.684Z,29.13
2022-12-14T10:08:54.206Z,23.50
2022-12-14T10:11:34.959Z,26.60
2022-12-14T10:14:26.611Z,27.85
2022-12-14T10:16:53.902Z,25.45
2022-12-14T10:19:21.249Z,30.90
2022-12-14T10:22:12.268Z,30.13
2022-12-14T10:24:44.982Z,28.65
2022-12-14T10:27:22.997Z,28.33
2022-12-14T10:30:05.378Z,30.67
2022-12-14T10:32:40.650Z,29.50
2022-12-14T10:35:19.491Z,32.38
2022-12-14T10:37:56.033Z,30.30
2022-12-14T10:40:35.283Z,36.92
2022-12-14T10:43:32.098Z,31.33
2022-12-14T10:46:16.241Z,30.85
2022-12-14T10:48:45.263Z,24.67
2022-12-14T10:51:33.894Z,30.17
2022-12-14T10:54:31.873Z,28.13
2022-12-14T10:56:59.240Z,31.23
2022-12-14T10:59:36.941Z,29.70
2022-12-14T11:02:17.658Z,32.70
2022-12-14T11:04:45.083Z,31.73
2022-12-14T11:07:15.898Z,30.58
2022-12-14T11:09:43.643Z,33.10
2022-12-14T11:12:13.611Z,33.90
2022-12-14T11:15:02.016Z,29.98
2022-12-14T11:17:37.723Z,27.67
2022-12-14T11:20:05.169Z,32.38
2022-12-14T11:22:44.773Z,26.83
2022-12-14T11:25:27.210Z,27.35
2022-12-14T11:27:54.889Z,28.42
2022-12-14T11:30:22.223Z,26.17
2022-12-14T11:32:49.861Z,32.53
2022-12-14T11:35:20.184Z,31.77
2022-12-14T11:37:51.117Z,29.65
2022-12-14T11:40:25.452Z,27.95
2022-12-14T11:42:59.721Z,26.30
2022-12-14T11:45:26.570Z,32.13
2022-12-14T11:48:13.618Z,29.88
2022-12-14T11:50:41.335Z,26.60
2022-12-14T11:53:14.630Z,27.45
2022-12-14T11:55:48.186Z,29.90
2022-12-14T11:58:23.077Z,23.00
2022-12-14T12:00:55.596Z,31.20
2022-12-14T12:03:27.768Z,32.55
2022-12-14T12:05:59.837Z,32.15
2022-12-14T12:08:30.070Z,26.40
2022-12-14T12:11:02.870Z,26.05
2022-12-14T12:13:37.128Z,33.28
2022-12-14T12:16:16.848Z,28.95
2022-12-14T12:18:46.490Z,30.33
2022-12-14T12:21:13.951Z,30.13
2022-12-14T12:24:01.794Z,26.25
2022-12-14T12:26:37.998Z,31.08
2022-12-14T12:29:10.594Z,32.47
2022-12-14T12:32:05.005Z,30.45
2022-12-14T12:34:51.447Z,26.42
2022-12-14T12:37:27.406Z,32.03
2022-12-14T12:40:02.412Z,32.42
2022-12-14T12:42:46.488Z,28.98
2022-12-14T12:45:22.294Z,29.25
2022-12-14T12:48:12.916Z,29.25
2022-12-14T12:50:49.759Z,23.80
2022-12-14T12:53:21.372Z,24.88
2022-12-14T12:55:53.683Z,24.15
2022-12-14T12:58:27.719Z,30.13
2022-12-14T13:00:58.534Z,27.55
2022-12-14T13:03:25.802Z,26.45
2022-12-14T13:05:55.306Z,26.42
2022-12-14T13:08:34.838Z,24.42
2022-12-14T13:11:25.645Z,26.08
2022-12-14T13:14:18.537Z,29.27
2022-12-14T13:16:46.573Z,29.73
2022-12-14T13:19:50.634Z,27.15
2022-12-14T13:22:27.814Z,32.58
2022-12-14T13:24:59.539Z,29.00
2022-12-14T13:27:43.318Z,26.98
2022-12-14T13:30:30.020Z,25.95
2022-12-14T13:33:24.547Z,27.95
2022-12-14T13:35:57.377Z,30.92
2022-12-14T13:39:02.846Z,33.28
2022-12-14T13:41:52.697Z,29.77
2022-12-14T13:44:45.020Z,34.10
2022-12-14T13:47:20.081Z,27.98
2022-12-14T13:50:18.580Z,41.33
2022-12-14T13:52:46.735Z,36.80
2022-12-14T13:55:32.373Z,40.03
2022-12-14T13:58:33.836Z,32.05
2022-12-14T14:01:02.317Z,30.60
2022-12-14T14:03:35.548Z,29.23
2022-12-14T14:06:08.716Z,33.58
2022-12-14T14:08:41.798Z,38.40
2022-12-14T14:11:39.709Z,40.60
2022-12-14T14:14:41.443Z,35.60
2022-12-14T14:17:46.703Z,42.70
2022-12-14T14:20:31.690Z,33.05
2022-12-14T14:23:16.898Z,39.13
2022-12-14T14:26:10.261Z,34.42
2022-12-14T14:28:38.302Z,34.30
2022-12-14T14:31:06.229Z,35.10
2022-12-14T14:33:49.324Z,40.05
2022-12-14T14:36:33.634Z,38.67
2022-12-14T14:39:02.449Z,37.03
2022-12-14T14:41:36.251Z,36.83
2022-12-14T14:44:07.632Z,30.63
2022-12-14T14:46:46.061Z,38.20
2022-12-14T14:49:35.515Z,34.83
2022-12-14T14:52:39.501Z,38.40
2022-12-14T14:55:53.329Z,39.22
2022-12-14T14:58:35.339Z,33.15
2022-12-14T15:01:13.123Z,41.28
2022-12-14T15:04:03.980Z,39.05
2022-12-14T15:06:40.960Z,39.65
2022-12-14T15:09:21.152Z,42.13
2022-12-14T15:11:51.517Z,38.53
2022-12-14T15:14:28.149Z,40.58
2022-12-14T15:16:55.414Z,42.63
2022-12-14T15:19:22.819Z,33.60
2022-12-14T15:22:03.429Z,34.85
2022-12-14T15:24:37.225Z,45.15
2022-12-14T15:27:22.110Z,36.20
2022-12-14T15:32:18.345Z,32.50
2022-12-14T15:35:03.629Z,34.80
2022-12-14T15:37:46.061Z,38.35
2022-12-14T15:40:25.418Z,34.95
2022-12-14T15:42:54.848Z,34.00
2022-12-14T15:45:28.409Z,35.40
2022-12-14T15:47:56.109Z,38.70
2022-12-14T15:50:28.674Z,52.47
2022-12-14T15:53:21.971Z,52.50
2022-12-14T15:55:59.833Z,38.20
2022-12-14T15:58:35.714Z,36.75
2022-12-14T16:03:55.456Z,45.30
2022-12-14T16:06:26.284Z,42.80
2022-12-14T16:09:00.395Z,39.28
2022-12-14T16:11:42.017Z,35.28
2022-12-14T16:14:32.531Z,40.33
2022-12-14T16:17:00.812Z,39.60
2022-12-14T16:19:44.970Z,38.63
2022-12-14T16:22:23.727Z,47.33
2022-12-14T16:25:16.882Z,41.45
2022-12-14T16:27:50.285Z,43.20
2022-12-14T16:30:27.893Z,46.93
2022-12-14T16:33:06.802Z,48.60
2022-12-14T16:35:36.436Z,43.00
2022-12-14T16:38:11.676Z,45.28
2022-12-14T16:40:51.704Z,46.97
2022-12-14T16:43:27.642Z,44.58
2022-12-14T16:45:55.570Z,45.58
2022-12-14T16:48:24.840Z,46.88
2022-12-14T16:50:58.087Z,44.35
2022-12-14T16:53:32.131Z,44.30
2022-12-14T16:56:05.726Z,47.38
2022-12-14T16:58:33.433Z,50.88
2022-12-14T17:01:03.149Z,49.00
2022-12-14T17:03:32.129Z,43.92
2022-12-14T17:06:05.435Z,52.42
2022-12-14T17:08:34.222Z,49.97
2022-12-14T17:11:02.437Z,50.58
2022-12-14T17:13:30.522Z,58.20
2022-12-14T17:16:05.965Z,48.00
2022-12-14T17:18:37.545Z,56.53
2022-12-14T17:21:05.653Z,57.40
2022-12-14T17:23:33.702Z,54.33
2022-12-14T17:26:01.576Z,48.85
2022-12-14T17:28:32.777Z,50.25
2022-12-14T17:31:01.973Z,58.90
2022-12-14T17:33:33.098Z,48.63
2022-12-14T17:39:48.364Z,57.47
2022-12-14T17:42:18.280Z,63.80
2022-12-14T17:44:52.463Z,66.65
2022-12-14T17:51:07.382Z,65.05
2022-12-14T17:53:36.836Z,62.80
2022-12-14T17:56:04.789Z,66.75
2022-12-14T17:58:32.802Z,71.05
2022-12-14T18:01:00.110Z,69.70
2022-12-14T18:03:32.454Z,63.83
2022-12-14T18:06:00.638Z,64.03
2022-12-14T18:08:27.937Z,62.25
2022-12-14T18:10:59.068Z,67.80
2022-12-14T18:13:27.582Z,66.35
2022-12-14T18:15:56.034Z,65.03
2022-12-14T18:18:27.647Z,60.58
2022-12-14T18:21:02.944Z,76.65
2022-12-14T18:23:31.340Z,84.53
2022-12-14T18:25:59.757Z,64.90
2022-12-14T18:28:27.034Z,88.00
2022-12-14T18:31:02.296Z,73.93
2022-12-14T18:33:30.266Z,72.38
2022-12-14T18:35:58.371Z,74.13
2022-12-14T18:44:45.227Z,67.28
2022-12-14T18:47:40.183Z,66.97
2022-12-14T18:50:00.144Z,61.38
2022-12-14T18:52:27.573Z,69.05
2022-12-14T18:54:55.528Z,76.22
2022-12-14T18:57:22.963Z,72.22
2022-12-14T18:59:50.397Z,79.00
2022-12-14T19:02:18.257Z,74.10
2022-12-14T19:04:49.254Z,77.82
2022-12-14T19:07:17.472Z,82.07
2022-12-14T19:09:45.573Z,78.03
2022-12-14T19:12:13.136Z,73.45
2022-12-14T19:14:40.929Z,81.68
2022-12-14T19:17:08.293Z,78.25
2022-12-14T19:19:41.084Z,74.00
2022-12-14T19:22:11.794Z,82.63
2022-12-14T19:24:39.057Z,70.38
2022-12-14T19:27:06.609Z,78.68
2022-12-14T19:29:35.558Z,89.22
2022-12-14T19:32:05.593Z,82.63
2022-12-14T19:34:33.426Z,80.68
2022-12-14T19:37:00.815Z,78.38
2022-12-14T19:39:28.139Z,77.95
2022-12-14T19:41:55.985Z,82.00
2022-12-14T19:44:23.468Z,78.55
2022-12-14T19:46:50.779Z,76.15
2022-12-14T19:49:18.401Z,82.13
2022-12-14T19:51:45.706Z,79.50
2022-12-14T19:54:13.066Z,79.35
2022-12-14T19:56:40.478Z,77.45
2022-12-14T19:59:08.032Z,87.88
2022-12-14T20:01:39.702Z,86.05
2022-12-14T20:04:09.355Z,79.50
2022-12-14T20:06:36.841Z,85.05
2022-12-14T20:09:06.190Z,86.88
2022-12-14T20:11:33.584Z,81.32
2022-12-14T20:14:03.298Z,87.20
2022-12-14T20:16:31.023Z,79.13
2022-12-14T20:18:58.683Z,74.20
2022-12-14T20:21:29.376Z,83.28
2022-12-14T20:23:59.918Z,84.88
2022-12-14T20:26:27.324Z,83.68
2022-12-14T20:28:57.092Z,95.85
2022-12-14T20:31:24.469Z,76.15
2022-12-14T20:33:51.995Z,88.03
2022-12-14T20:36:19.459Z,84.40
2022-12-14T20:38:49.288Z,88.93
2022-12-14T20:41:17.296Z,88.20
2022-12-14T20:43:45.525Z,94.18
2022-12-14T20:46:29.451Z,97.00
2022-12-14T20:48:57.809Z,88.53
2022-12-14T20:51:25.170Z,103.43
2022-12-14T20:53:52.476Z,92.93
2022-12-14T20:56:20.867Z,79.35
2022-12-14T20:58:49.079Z,85.10
2022-12-14T21:01:17.329Z,85.28
2022-12-14T21:03:50.764Z,84.82
2022-12-14T21:06:20.977Z,79.78
2022-12-14T21:09:10.337Z,81.55
2022-12-14T21:12:06.027Z,75.13
2022-12-14T21:14:42.930Z,83.60
2022-12-14T21:17:11.056Z,72.95
2022-12-14T21:19:38.489Z,78.95
2022-12-14T21:22:07.242Z,76.35
2022-12-14T21:27:28.146Z,75.25
2022-12-14T21:29:55.457Z,77.88
2022-12-14T21:32:23.160Z,74.13
2022-12-14T21:34:50.459Z,81.38
2022-12-14T21:37:17.897Z,85.38
2022-12-14T21:39:51.878Z,77.10
2022-12-14T21:42:22.070Z,65.07
2022-12-14T21:44:50.595Z,67.43
2022-12-14T21:47:28.485Z,80.80
2022-12-14T21:49:56.190Z,70.22
2022-12-14T21:52:25.309Z,75.00
2022-12-14T21:54:52.624Z,71.40
2022-12-14T21:57:42.941Z,75.07
2022-12-14T22:00:18.018Z,63.63
2022-12-14T22:02:45.724Z,69.53
2022-12-14T22:05:14.281Z,72.65
2022-12-14T22:07:42.008Z,72.85
2022-12-14T22:10:09.239Z,64.88
2022-12-14T22:12:36.528Z,65.47
2022-12-14T22:19:14.615Z,62.17
2022-12-14T22:21:41.870Z,70.82
2022-12-14T22:24:10.077Z,85.80
2022-12-14T22:26:38.154Z,77.75
2022-12-14T22:29:06.550Z,78.40
2022-12-14T22:31:34.041Z,76.53
2022-12-14T22:34:01.430Z,78.45
2022-12-14T22:36:28.772Z,69.38
2022-12-14T22:38:57.576Z,79.03
2022-12-14T22:41:25.750Z,74.10
2022-12-14T22:43:56.882Z,71.25
2022-12-14T22:46:25.648Z,68.22
2022-12-14T22:48:53.319Z,62.83
2022-12-14T22:51:21.387Z,71.55
2022-12-14T22:53:49.760Z,72.22
2022-12-14T22:56:27.196Z,70.50
2022-12-14T23:02:45.319Z,66.80
2022-12-14T23:05:15.205Z,76.05
2022-12-14T23:07:42.808Z,67.15
2022-12-14T23:10:29.277Z,70.93
2022-12-14T23:13:15.028Z,77.60
2022-12-14T23:16:01.132Z,75.22
2022-12-14T23:18:47.132Z,69.93
2022-12-14T23:21:33.371Z,81.78
2022-12-14T23:24:19.356Z,85.57
2022-12-14T23:27:09.397Z,89.15
2022-12-14T23:29:55.549Z,77.93
2022-12-14T23:32:41.753Z,71.93
2022-12-14T23:35:28.020Z,77.80
2022-12-14T23:38:13.793Z,69.13
2022-12-14T23:40:59.725Z,63.45
2022-12-14T23:43:45.862Z,75.20
2022-12-14T23:46:32.050Z,72.53
2022-12-14T23:49:18.242Z,70.63
2022-12-14T23:52:04.140Z,70.70
2022-12-14T23:54:50.315Z,70.13
2022-12-14T23:57:36.456Z,61.88
